Terminal Aerodrome Forecast
Issued by NWS

Current Version | Previous Version | Graphics & Text | Print | Product List | Glossary On
Versions: 1 2 3 4 5 6 7 8 9 10 11 12 13 14 15 16 17 18 19 20 21 22 23 24 25
533
FTUS41 KRLX 120537
TAFCKB
TAF
KCKB 120537Z 1206/1306 19005KT P6SM BKN070
     FM121100 24011G20KT P6SM OVC040
     FM121300 27012G21KT 4SM -SHSN OVC015
     FM121800 28013G25KT P6SM -SHSN BKN020=

USA.gov is the U.S. government's official web portal to all federal, state and local government web resources and services.